createdAt,value
2023-03-25T00:01:13.931Z,98157.66
2023-03-25T00:03:42.028Z,98160.22
2023-03-25T00:06:10.608Z,98160.22
2023-03-25T00:08:37.312Z,98160.25
2023-03-25T00:11:04.568Z,98164.56
2023-03-25T00:13:31.876Z,98164.56
2023-03-25T00:15:58.878Z,98156.03
2023-03-25T00:18:26.612Z,98153.47
2023-03-25T00:20:53.542Z,98164.56
2023-03-25T00:23:20.855Z,98149.16
2023-03-25T00:25:48.211Z,98152.59
2023-03-25T00:28:16.142Z,98144.03
2023-03-25T00:30:43.860Z,98138.91
2023-03-25T00:33:11.114Z,98137.13
2023-03-25T00:35:39.620Z,98130.31
2023-03-25T00:38:07.842Z,98120.94
2023-03-25T00:40:34.794Z,98106.38
2023-03-25T00:43:02.125Z,98107.25
2023-03-25T00:45:28.874Z,98114.13
2023-03-25T00:47:55.595Z,98112.41
2023-03-25T00:50:22.163Z,98112.41
2023-03-25T00:52:49.003Z,98112.41
2023-03-25T00:55:15.643Z,98106.47
2023-03-25T00:57:42.191Z,98097.06
2023-03-25T01:00:10.645Z,98096.22
2023-03-25T01:02:39.474Z,98091.09
2023-03-25T01:05:06.887Z,98092.81
2023-03-25T01:07:33.567Z,98101.38
2023-03-25T01:10:00.241Z,98097.06
2023-03-25T01:12:27.236Z,98073.97
2023-03-25T01:14:54.034Z,98074.88
2023-03-25T01:17:21.053Z,98079.09
2023-03-25T01:19:47.629Z,98083.41
2023-03-25T01:22:14.232Z,98082.56
2023-03-25T01:24:40.867Z,98073.13
2023-03-25T01:27:07.434Z,98086.81
2023-03-25T01:29:34.083Z,98072.25
2023-03-25T01:32:00.799Z,98082.50
2023-03-25T01:34:27.450Z,98075.59
2023-03-25T01:36:55.955Z,98068.75
2023-03-25T01:39:23.029Z,98070.44
2023-03-25T01:41:51.295Z,98048.19
2023-03-25T01:44:22.007Z,98049.00
2023-03-25T01:46:53.070Z,98046.44
2023-03-25T01:49:26.858Z,98037.84
2023-03-25T01:51:58.349Z,98035.25
2023-03-25T01:54:25.140Z,98030.94
2023-03-25T01:56:52.435Z,98028.28
2023-03-25T01:59:20.196Z,98017.13
2023-03-25T02:01:47.128Z,98010.25
2023-03-25T02:04:16.245Z,98010.25
2023-03-25T02:06:44.370Z,98022.25
2023-03-25T02:09:12.211Z,98013.72
2023-03-25T02:11:39.314Z,98021.44
2023-03-25T02:14:11.392Z,98008.56
2023-03-25T02:17:04.056Z,98013.72
2023-03-25T02:19:42.703Z,98006.84
2023-03-25T02:22:14.742Z,98011.91
2023-03-25T02:24:57.966Z,98005.09
2023-03-25T02:27:47.170Z,98001.63
2023-03-25T02:30:13.742Z,98002.53
2023-03-25T02:32:49.174Z,97986.22
2023-03-25T02:35:21.549Z,97982.81
2023-03-25T02:38:09.260Z,97975.19
2023-03-25T02:40:45.834Z,97973.47
2023-03-25T02:43:17.526Z,97975.19
2023-03-25T02:45:50.659Z,97964.00
2023-03-25T02:48:25.784Z,97960.59
2023-03-25T02:50:55.498Z,97957.16
2023-03-25T02:53:29.837Z,97946.00
2023-03-25T02:56:00.756Z,97946.84
2023-03-25T02:58:30.935Z,97951.06
2023-03-25T03:00:59.176Z,97948.50
2023-03-25T03:03:27.301Z,97945.00
2023-03-25T03:05:57.707Z,97941.50
2023-03-25T03:08:43.333Z,97938.91
2023-03-25T03:11:16.005Z,97938.00
2023-03-25T03:13:59.112Z,97931.13
2023-03-25T03:16:26.164Z,97932.81
2023-03-25T03:19:11.869Z,97917.41
2023-03-25T03:21:46.361Z,97920.78
2023-03-25T03:24:27.799Z,97907.03
2023-03-25T03:26:57.724Z,97912.16
2023-03-25T03:29:51.110Z,97906.19
2023-03-25T03:32:23.020Z,97904.41
2023-03-25T03:34:54.632Z,97889.81
2023-03-25T03:37:23.990Z,97886.34
2023-03-25T03:39:52.442Z,97889.75
2023-03-25T03:42:26.162Z,97889.72
2023-03-25T03:44:58.205Z,97873.38
2023-03-25T03:47:27.879Z,97869.13
2023-03-25T03:49:58.035Z,97872.56
2023-03-25T03:52:46.217Z,97871.69
2023-03-25T03:55:15.059Z,97857.06
2023-03-25T03:58:01.844Z,97848.53
2023-03-25T04:00:50.869Z,97846.69
2023-03-25T04:03:24.537Z,97850.03
2023-03-25T04:06:00.997Z,97845.69
2023-03-25T04:08:31.268Z,97835.28
2023-03-25T04:11:04.355Z,97831.00
2023-03-25T04:13:37.585Z,97829.19
2023-03-25T04:16:04.302Z,97827.34
2023-03-25T04:18:33.787Z,97818.72
2023-03-25T04:21:01.066Z,97815.16
2023-03-25T04:23:30.768Z,97816.84
2023-03-25T04:25:57.915Z,97818.34
2023-03-25T04:28:25.671Z,97807.19
2023-03-25T04:30:55.801Z,97794.28
2023-03-25T04:33:25.482Z,97794.94
2023-03-25T04:35:52.433Z,97787.09
2023-03-25T04:38:19.612Z,97793.94
2023-03-25T04:40:46.815Z,97789.59
2023-03-25T04:43:17.197Z,97774.91
2023-03-25T04:45:49.543Z,97773.94
2023-03-25T04:48:21.244Z,97773.06
2023-03-25T04:50:48.416Z,97777.28
2023-03-25T04:53:14.952Z,97761.84
2023-03-25T04:55:48.083Z,97762.53
2023-03-25T04:58:15.978Z,97753.94
2023-03-25T05:00:43.909Z,97754.78
2023-03-25T05:03:11.507Z,97751.22
2023-03-25T05:05:38.672Z,97752.00
2023-03-25T05:08:05.276Z,97754.53
2023-03-25T05:10:32.379Z,97747.53
2023-03-25T05:13:03.597Z,97749.34
2023-03-25T05:15:39.256Z,97751.81
2023-03-25T05:18:09.486Z,97746.66
2023-03-25T05:20:39.949Z,97750.09
2023-03-25T05:23:12.111Z,97753.56
2023-03-25T05:25:39.099Z,97755.28
2023-03-25T05:28:06.067Z,97757.09
2023-03-25T05:30:33.861Z,97774.22
2023-03-25T05:33:01.626Z,97758.78
2023-03-25T05:35:28.256Z,97761.34
2023-03-25T05:37:56.048Z,97745.75
2023-03-25T05:40:22.872Z,97763.47
2023-03-25T05:42:49.880Z,97749.78
2023-03-25T05:45:16.779Z,97739.34
2023-03-25T05:47:43.398Z,97746.28
2023-03-25T05:50:10.595Z,97735.84
2023-03-25T05:52:37.228Z,97726.53
2023-03-25T05:55:05.016Z,97723.94
2023-03-25T05:57:31.610Z,97742.16
2023-03-25T05:59:58.237Z,97738.59
2023-03-25T06:02:25.601Z,97739.41
2023-03-25T06:04:52.286Z,97746.13
2023-03-25T06:07:22.338Z,97740.00
2023-03-25T06:09:49.826Z,97735.56
2023-03-25T06:12:17.815Z,97746.53
2023-03-25T06:14:45.894Z,97725.72
2023-03-25T06:17:14.225Z,97731.50
2023-03-25T06:19:41.090Z,97725.41
2023-03-25T06:22:11.528Z,97719.22
2023-03-25T06:24:39.027Z,97718.09
2023-03-25T06:27:10.051Z,97721.28
2023-03-25T06:29:41.943Z,97726.16
2023-03-25T06:32:09.802Z,97718.28
2023-03-25T06:34:37.066Z,97713.00
2023-03-25T06:37:03.690Z,97724.84
2023-03-25T06:39:31.403Z,97709.34
2023-03-25T06:41:58.646Z,97720.38
2023-03-25T06:44:25.456Z,97710.06
2023-03-25T06:46:52.199Z,97724.00
2023-03-25T06:49:19.191Z,97729.19
2023-03-25T06:51:45.814Z,97722.47
2023-03-25T06:54:12.349Z,97713.19
2023-03-25T06:56:38.954Z,97700.56
2023-03-25T06:59:06.071Z,97711.94
2023-03-25T07:01:33.068Z,97695.63
2023-03-25T07:03:59.637Z,97710.28
2023-03-25T07:06:26.484Z,97707.09
2023-03-25T07:08:53.104Z,97712.38
2023-03-25T07:11:22.329Z,97697.81
2023-03-25T07:13:48.974Z,97702.28
2023-03-25T07:16:15.570Z,97711.69
2023-03-25T07:18:42.156Z,97713.31
2023-03-25T07:21:08.738Z,97702.91
2023-03-25T07:23:35.396Z,97707.22
2023-03-25T07:26:01.968Z,97702.84
2023-03-25T07:28:28.531Z,97703.69
2023-03-25T07:30:55.094Z,97698.44
2023-03-25T07:33:21.637Z,97703.31
2023-03-25T07:35:48.348Z,97704.19
2023-03-25T07:38:14.985Z,97704.97
2023-03-25T07:40:41.516Z,97690.34
2023-03-25T07:43:08.124Z,97694.59
2023-03-25T07:45:43.561Z,97703.28
2023-03-25T07:48:14.873Z,97704.09
2023-03-25T07:50:42.205Z,97692.78
2023-03-25T07:53:08.759Z,97698.72
2023-03-25T07:55:35.578Z,97700.22
2023-03-25T07:58:02.884Z,97700.16
2023-03-25T08:00:29.921Z,97713.81
2023-03-25T08:02:56.635Z,97700.78
2023-03-25T08:05:23.744Z,97720.66
2023-03-25T08:07:53.864Z,97711.06
2023-03-25T08:10:20.531Z,97697.50
2023-03-25T08:12:47.229Z,97714.72
2023-03-25T08:15:14.066Z,97714.72
2023-03-25T08:17:41.048Z,97726.69
2023-03-25T08:20:07.928Z,97741.22
2023-03-25T08:22:34.506Z,97742.19
2023-03-25T08:25:01.066Z,97741.28
2023-03-25T08:27:27.655Z,97756.13
2023-03-25T08:30:01.929Z,97733.72
2023-03-25T08:32:28.862Z,97738.88
2023-03-25T08:34:56.089Z,97735.56
2023-03-25T08:37:23.954Z,97736.50
2023-03-25T08:39:50.635Z,97728.00
2023-03-25T08:42:17.790Z,97717.81
2023-03-25T08:44:44.467Z,97733.44
2023-03-25T08:47:13.908Z,97731.88
2023-03-25T08:49:40.525Z,97735.31
2023-03-25T08:52:08.820Z,97743.03
2023-03-25T08:54:36.051Z,97735.28
2023-03-25T08:57:02.721Z,97737.06
2023-03-25T08:59:30.733Z,97739.66
2023-03-25T09:01:58.881Z,97745.69
2023-03-25T09:04:27.484Z,97744.84
2023-03-25T09:07:11.033Z,97745.66
2023-03-25T09:09:38.983Z,97747.41
2023-03-25T09:12:06.540Z,97736.16
2023-03-25T09:14:33.184Z,97739.63
2023-03-25T09:16:59.878Z,97731.78
2023-03-25T09:19:26.473Z,97730.84
2023-03-25T09:21:53.332Z,97730.69
2023-03-25T09:24:22.710Z,97737.47
2023-03-25T09:26:49.801Z,97732.25
2023-03-25T09:29:16.879Z,97735.63
2023-03-25T09:31:43.702Z,97743.22
2023-03-25T09:34:14.116Z,97738.94
2023-03-25T09:36:48.388Z,97754.50
2023-03-25T09:39:15.035Z,97747.53
2023-03-25T09:41:54.019Z,97745.81
2023-03-25T09:44:28.651Z,97753.19
2023-03-25T09:46:56.726Z,97766.06
2023-03-25T09:49:26.118Z,97762.53
2023-03-25T09:51:54.032Z,97767.69
2023-03-25T09:54:25.424Z,97765.81
2023-03-25T09:56:53.297Z,97768.03
2023-03-25T09:59:21.347Z,97761.09
2023-03-25T10:01:58.482Z,97776.47
2023-03-25T10:04:33.930Z,97777.34
2023-03-25T10:07:18.858Z,97770.34
2023-03-25T10:10:00.443Z,97785.84
2023-03-25T10:12:32.696Z,97765.09
2023-03-25T10:15:17.850Z,97768.28
2023-03-25T10:18:02.817Z,97780.31
2023-03-25T10:20:38.602Z,97761.13
2023-03-25T10:23:15.772Z,97763.56
2023-03-25T10:25:45.917Z,97762.53
2023-03-25T10:28:17.088Z,97765.13
2023-03-25T10:30:46.668Z,97768.47
2023-03-25T10:33:36.714Z,97769.09
2023-03-25T10:36:06.261Z,97757.03
2023-03-25T10:38:34.877Z,97762.94
2023-03-25T10:41:19.589Z,97780.22
2023-03-25T10:43:46.292Z,97770.66
2023-03-25T10:46:13.096Z,97762.81
2023-03-25T10:48:40.136Z,97760.88
2023-03-25T10:51:17.613Z,97770.97
2023-03-25T10:53:47.159Z,97775.22
2023-03-25T10:56:15.689Z,97771.00
2023-03-25T10:58:43.612Z,97768.19
2023-03-25T11:01:12.126Z,97765.47
2023-03-25T11:03:39.499Z,97768.91
2023-03-25T11:06:07.102Z,97769.53
2023-03-25T11:08:33.956Z,97763.44
2023-03-25T11:11:01.500Z,97754.97
2023-03-25T11:13:30.676Z,97760.75
2023-03-25T11:16:02.384Z,97769.59
2023-03-25T11:18:40.245Z,97771.28
2023-03-25T11:21:12.646Z,97769.56
2023-03-25T11:23:47.493Z,97764.50
2023-03-25T11:26:19.935Z,97780.03
2023-03-25T11:28:50.873Z,97778.34
2023-03-25T11:31:24.128Z,97771.41
2023-03-25T11:34:09.499Z,97764.44
2023-03-25T11:36:37.888Z,97767.91
2023-03-25T11:39:14.567Z,97755.16
2023-03-25T11:41:41.159Z,97749.19
2023-03-25T11:44:08.255Z,97760.66
2023-03-25T11:46:41.563Z,97767.56
2023-03-25T11:49:09.882Z,97758.19
2023-03-25T11:51:36.689Z,97766.75
2023-03-25T11:54:07.017Z,97767.66
2023-03-25T11:56:36.026Z,97764.16
2023-03-25T11:59:03.200Z,97767.50
2023-03-25T12:01:36.984Z,97765.84
2023-03-25T12:04:12.752Z,97764.22
2023-03-25T12:06:52.896Z,97777.28
2023-03-25T12:09:19.537Z,97785.75
2023-03-25T12:12:06.490Z,97785.75
2023-03-25T12:14:51.674Z,97772.78
2023-03-25T12:17:36.878Z,97794.31
2023-03-25T12:20:23.721Z,97787.56
2023-03-25T12:23:00.302Z,97789.22
2023-03-25T12:25:36.069Z,97797.59
2023-03-25T12:28:02.648Z,97790.06
2023-03-25T12:30:35.362Z,97794.25
2023-03-25T12:33:22.317Z,97803.75
2023-03-25T12:36:14.194Z,97789.06
2023-03-25T12:38:59.153Z,97788.88
2023-03-25T12:41:34.524Z,97781.00
2023-03-25T12:44:04.429Z,97767.81
2023-03-25T12:46:33.894Z,97771.13
2023-03-25T12:49:26.508Z,97780.47
2023-03-25T12:51:53.042Z,97778.84
2023-03-25T12:54:38.491Z,97779.88
2023-03-25T12:57:14.039Z,97782.88
2023-03-25T13:00:08.094Z,97781.25
2023-03-25T13:02:53.229Z,97775.19
2023-03-25T13:05:25.068Z,97793.31
2023-03-25T13:07:55.966Z,97775.34
2023-03-25T13:10:25.121Z,97763.00
2023-03-25T13:12:54.092Z,97767.53
2023-03-25T13:15:28.399Z,97762.94
2023-03-25T13:18:00.703Z,97766.28
2023-03-25T13:20:30.075Z,97760.09
2023-03-25T13:23:01.796Z,97768.84
2023-03-25T13:25:47.063Z,97770.56
2023-03-25T13:28:16.970Z,97789.44
2023-03-25T13:30:45.445Z,97774.81
2023-03-25T13:33:17.112Z,97777.13
2023-03-25T13:35:47.626Z,97764.75
2023-03-25T13:38:40.653Z,97766.75
2023-03-25T13:41:25.692Z,97766.72
2023-03-25T13:44:04.752Z,97773.53
2023-03-25T13:46:43.297Z,97781.28
2023-03-25T13:49:24.357Z,97782.28
2023-03-25T13:51:50.977Z,97788.59
2023-03-25T13:54:27.207Z,97789.72
2023-03-25T13:57:14.061Z,97808.63
2023-03-25T13:59:59.194Z,97786.06
2023-03-25T14:02:26.044Z,97792.91
2023-03-25T14:05:02.117Z,97790.22
2023-03-25T14:07:32.481Z,97781.38
2023-03-25T14:09:59.007Z,97780.50
2023-03-25T14:12:32.029Z,97787.25
2023-03-25T14:15:07.899Z,97789.91
2023-03-25T14:17:36.201Z,97780.19
2023-03-25T14:20:08.313Z,97784.59
2023-03-25T14:22:40.897Z,97787.09
2023-03-25T14:25:27.492Z,97791.81
2023-03-25T14:27:54.352Z,97792.56
2023-03-25T14:30:26.060Z,97792.56
2023-03-25T14:32:54.955Z,97782.28
2023-03-25T14:35:34.426Z,97788.81
2023-03-25T14:38:09.975Z,97777.50
2023-03-25T14:40:47.872Z,97793.13
2023-03-25T14:43:33.107Z,97789.72
2023-03-25T14:46:12.978Z,97785.34
2023-03-25T14:48:45.089Z,97795.81
2023-03-25T14:51:14.742Z,97791.59
2023-03-25T14:53:42.082Z,97805.34
2023-03-25T14:56:15.641Z,97814.69
2023-03-25T14:58:42.351Z,97820.78
2023-03-25T15:01:14.781Z,97806.38
2023-03-25T15:03:45.766Z,97812.50
2023-03-25T15:06:18.177Z,97814.34
2023-03-25T15:08:52.072Z,97814.38
2023-03-25T15:11:25.109Z,97809.19
2023-03-25T15:13:55.554Z,97800.44
2023-03-25T15:16:36.035Z,97800.44
2023-03-25T15:19:12.881Z,97802.28
2023-03-25T15:21:57.590Z,97820.50
2023-03-25T15:24:34.248Z,97812.78
2023-03-25T15:27:02.403Z,97827.41
2023-03-25T15:29:47.582Z,97828.44
2023-03-25T15:32:14.220Z,97823.00
2023-03-25T15:34:59.455Z,97833.47
2023-03-25T15:37:46.911Z,97826.59
2023-03-25T15:40:33.964Z,97826.78
2023-03-25T15:43:06.418Z,97833.56
2023-03-25T15:45:48.112Z,97831.00
2023-03-25T15:48:32.781Z,97849.34
2023-03-25T15:50:59.283Z,97837.28
2023-03-25T15:53:41.908Z,97838.16
2023-03-25T15:56:13.791Z,97846.94
2023-03-25T15:58:55.869Z,97844.53
2023-03-25T16:01:33.943Z,97835.69
2023-03-25T16:04:17.095Z,97832.38
2023-03-25T16:06:46.986Z,97839.28
2023-03-25T16:09:35.339Z,97837.56
2023-03-25T16:12:02.896Z,97845.41
2023-03-25T16:14:31.054Z,97839.28
2023-03-25T16:16:59.191Z,97844.56
2023-03-25T16:19:35.464Z,97842.00
2023-03-25T16:22:03.585Z,97846.38
2023-03-25T16:24:34.246Z,97855.84
2023-03-25T16:27:20.609Z,97853.34
2023-03-25T16:29:48.039Z,97853.41
2023-03-25T16:32:19.325Z,97852.59
2023-03-25T16:34:46.696Z,97856.25
2023-03-25T16:37:13.792Z,97864.94
2023-03-25T16:39:40.598Z,97858.84
2023-03-25T16:42:15.166Z,97862.22
2023-03-25T16:44:47.954Z,97871.75
2023-03-25T16:47:15.884Z,97876.16
2023-03-25T16:49:46.202Z,97876.13
2023-03-25T16:52:19.584Z,97877.91
2023-03-25T16:54:52.329Z,97867.69
2023-03-25T16:57:20.629Z,97876.34
2023-03-25T16:59:47.752Z,97882.34
2023-03-25T17:02:31.190Z,97878.97
2023-03-25T17:05:18.996Z,97874.81
2023-03-25T17:07:48.066Z,97878.28
2023-03-25T17:10:28.252Z,97873.09
2023-03-25T17:13:07.444Z,97881.75
2023-03-25T17:15:35.007Z,97890.38
2023-03-25T17:18:03.593Z,97899.84
2023-03-25T17:20:41.532Z,97904.28
2023-03-25T17:23:08.412Z,97904.28
2023-03-25T17:25:36.888Z,97910.34
2023-03-25T17:28:28.775Z,97916.47
2023-03-25T17:30:55.734Z,97919.16
2023-03-25T17:33:42.620Z,97923.53
2023-03-25T17:36:13.505Z,97910.56
2023-03-25T17:38:48.588Z,97926.94
2023-03-25T17:41:17.042Z,97926.94
2023-03-25T17:43:45.456Z,97932.81
2023-03-25T17:46:16.281Z,97935.25
2023-03-25T17:48:46.447Z,97926.56
2023-03-25T17:51:16.669Z,97927.44
2023-03-25T17:53:43.356Z,97937.66
2023-03-25T17:56:16.817Z,97936.06
2023-03-25T17:58:44.153Z,97935.19
2023-03-25T18:01:14.037Z,97944.81
2023-03-25T18:03:40.772Z,97943.97
2023-03-25T18:06:07.657Z,97950.78
2023-03-25T18:08:35.371Z,97944.94
2023-03-25T18:11:02.316Z,97947.41
2023-03-25T18:13:29.389Z,97956.19
2023-03-25T18:15:56.246Z,97959.66
2023-03-25T18:18:24.831Z,97957.13
2023-03-25T18:20:52.386Z,97968.38
2023-03-25T18:23:19.120Z,97958.09
2023-03-25T18:25:45.782Z,97961.66
2023-03-25T18:28:13.456Z,97957.31
2023-03-25T18:30:49.484Z,97960.72
2023-03-25T18:33:16.460Z,97958.16
2023-03-25T18:35:43.693Z,97954.63
2023-03-25T18:38:16.502Z,97950.38
2023-03-25T18:40:43.376Z,97957.28
2023-03-25T18:43:09.923Z,97955.56
2023-03-25T18:45:37.538Z,97950.56
2023-03-25T18:48:04.639Z,97952.31
2023-03-25T18:50:32.775Z,97953.00
2023-03-25T18:52:59.715Z,97954.81
2023-03-25T18:55:27.546Z,97960.69
2023-03-25T18:57:54.881Z,97961.56
2023-03-25T19:00:26.960Z,97960.78
2023-03-25T19:02:53.823Z,97956.53
2023-03-25T19:05:21.441Z,97955.69
2023-03-25T19:07:49.361Z,97962.56
2023-03-25T19:10:18.340Z,97963.47
2023-03-25T19:12:46.134Z,97967.84
2023-03-25T19:15:13.863Z,97976.41
2023-03-25T19:17:40.493Z,97966.97
2023-03-25T19:20:07.723Z,97970.31
2023-03-25T19:22:34.498Z,97965.16
2023-03-25T19:25:01.563Z,97969.19
2023-03-25T19:27:29.258Z,97976.97
2023-03-25T19:29:56.060Z,97965.03
2023-03-25T19:32:23.041Z,97984.13
2023-03-25T19:34:51.374Z,97972.06
2023-03-25T19:37:18.242Z,97967.81
2023-03-25T19:39:45.120Z,97981.53
2023-03-25T19:42:11.882Z,97972.13
2023-03-25T19:44:38.678Z,97969.66
2023-03-25T19:47:05.455Z,97973.88
2023-03-25T19:49:39.827Z,97974.03
2023-03-25T19:52:07.843Z,97973.22
2023-03-25T19:54:34.527Z,97968.94
2023-03-25T19:57:01.548Z,97973.94
2023-03-25T19:59:28.302Z,97971.47
2023-03-25T20:01:55.137Z,97975.69
2023-03-25T20:04:21.813Z,97977.53
2023-03-25T20:06:48.627Z,97966.19
2023-03-25T20:09:15.272Z,97970.47
2023-03-25T20:11:41.892Z,97970.53
2023-03-25T20:14:08.477Z,97968.94
2023-03-25T20:16:35.132Z,97978.50
2023-03-25T20:19:01.805Z,97981.06
2023-03-25T20:21:28.524Z,97979.31
2023-03-25T20:23:55.225Z,97974.09
2023-03-25T20:26:21.918Z,97979.31
2023-03-25T20:28:49.424Z,97978.41
2023-03-25T20:31:18.704Z,97981.03
2023-03-25T20:33:45.998Z,97979.31
2023-03-25T20:36:12.999Z,97978.53
2023-03-25T20:38:42.065Z,97985.50
2023-03-25T20:41:17.255Z,97984.69
2023-03-25T20:43:44.208Z,97990.75
2023-03-25T20:46:13.658Z,97993.41
2023-03-25T20:48:40.811Z,97993.44
2023-03-25T20:51:10.138Z,97995.22
2023-03-25T20:53:36.721Z,97994.34
2023-03-25T20:56:04.111Z,97997.00
2023-03-25T20:58:30.790Z,97990.06
2023-03-25T21:00:59.020Z,97989.25
2023-03-25T21:03:26.553Z,97983.97
2023-03-25T21:05:57.979Z,97980.50
2023-03-25T21:08:30.422Z,97986.50
2023-03-25T21:11:01.626Z,97991.63
2023-03-25T21:13:33.862Z,97987.38
2023-03-25T21:16:01.841Z,97989.91
2023-03-25T21:18:29.264Z,97984.03
2023-03-25T21:20:57.278Z,97986.59
2023-03-25T21:23:28.328Z,97981.34
2023-03-25T21:25:56.999Z,97987.47
2023-03-25T21:28:23.562Z,97984.03
2023-03-25T21:30:58.408Z,97974.56
2023-03-25T21:33:25.761Z,97977.22
2023-03-25T21:35:54.009Z,97974.63
2023-03-25T21:38:29.515Z,97976.34
2023-03-25T21:40:57.336Z,97984.94
2023-03-25T21:43:24.376Z,97984.94
2023-03-25T21:45:51.219Z,97988.34
2023-03-25T21:48:18.285Z,97988.34
2023-03-25T21:50:48.986Z,97989.31
2023-03-25T21:53:19.317Z,97994.53
2023-03-25T21:55:55.316Z,97993.72
2023-03-25T21:58:22.323Z,97992.13
2023-03-25T22:00:48.993Z,97992.13
2023-03-25T22:03:17.261Z,97995.59
2023-03-25T22:05:43.907Z,97999.06
2023-03-25T22:08:10.494Z,97999.06
2023-03-25T22:10:37.002Z,97999.06
2023-03-25T22:13:03.687Z,97998.25
2023-03-25T22:15:30.362Z,98007.66
2023-03-25T22:17:56.938Z,98000.69
2023-03-25T22:20:23.697Z,97998.97
2023-03-25T22:22:51.463Z,97992.03
2023-03-25T22:25:18.536Z,97997.31
2023-03-25T22:27:46.147Z,97996.47
2023-03-25T22:30:13.076Z,97986.19
2023-03-25T22:32:39.745Z,97987.06
2023-03-25T22:35:06.611Z,97987.94
2023-03-25T22:37:34.242Z,97978.56
2023-03-25T22:40:00.843Z,97978.69
2023-03-25T22:42:29.642Z,97974.41
2023-03-25T22:44:56.434Z,97972.66
2023-03-25T22:47:23.026Z,97976.09
2023-03-25T22:49:49.648Z,97977.00
2023-03-25T22:52:16.215Z,97977.81
2023-03-25T22:54:42.865Z,97982.06
2023-03-25T22:57:09.713Z,97982.06
2023-03-25T22:59:36.428Z,97974.38
2023-03-25T23:02:03.047Z,97971.88
2023-03-25T23:04:29.701Z,97966.78
2023-03-25T23:07:06.822Z,97966.88
2023-03-25T23:09:44.881Z,97958.28
2023-03-25T23:12:12.628Z,97961.00
2023-03-25T23:14:40.644Z,97964.50
2023-03-25T23:17:07.673Z,97962.75
2023-03-25T23:19:34.340Z,97961.06
2023-03-25T23:22:00.894Z,97955.13
2023-03-25T23:24:27.841Z,97960.38
2023-03-25T23:26:54.479Z,97950.97
2023-03-25T23:29:21.064Z,97948.41
2023-03-25T23:31:48.166Z,97951.88
2023-03-25T23:34:16.724Z,97955.38
2023-03-25T23:36:43.979Z,97960.59
2023-03-25T23:39:12.045Z,97958.94
2023-03-25T23:41:38.597Z,97956.44
2023-03-25T23:44:05.904Z,97953.91
2023-03-25T23:46:32.617Z,97960.88
2023-03-25T23:49:02.601Z,97962.63
2023-03-25T23:51:32.894Z,97961.88
2023-03-25T23:53:59.634Z,97955.94
2023-03-25T23:56:26.209Z,97949.13
2023-03-25T23:58:53.889Z,97960.31
